sensor_id;sensor_type;location;lat;lon;timestamp;P1;durP1;ratioP1;P2;durP2;ratioP2
6101;SDS011;3081;50.584;7.032;2022-08-16T00:01:53;10.37;;;3.60;;
6101;SDS011;3081;50.584;7.032;2022-08-16T00:04:22;10.93;;;3.20;;
6101;SDS011;3081;50.584;7.032;2022-08-16T00:06:49;12.03;;;3.57;;
6101;SDS011;3081;50.584;7.032;2022-08-16T00:09:16;12.40;;;3.37;;
6101;SDS011;3081;50.584;7.032;2022-08-16T00:11:43;10.30;;;3.20;;
6101;SDS011;3081;50.584;7.032;2022-08-16T00:14:12;10.23;;;3.20;;
6101;SDS011;3081;50.584;7.032;2022-08-16T00:16:40;10.00;;;3.07;;
6101;SDS011;3081;50.584;7.032;2022-08-16T00:19:08;9.60;;;3.47;;
6101;SDS011;3081;50.584;7.032;2022-08-16T00:21:37;9.60;;;2.87;;
6101;SDS011;3081;50.584;7.032;2022-08-16T00:24:04;10.30;;;2.97;;
6101;SDS011;3081;50.584;7.032;2022-08-16T00:26:31;12.10;;;3.30;;
6101;SDS011;3081;50.584;7.032;2022-08-16T00:28:58;9.87;;;3.30;;
6101;SDS011;3081;50.584;7.032;2022-08-16T00:31:25;13.27;;;3.90;;
6101;SDS011;3081;50.584;7.032;2022-08-16T00:33:52;11.53;;;3.90;;
6101;SDS011;3081;50.584;7.032;2022-08-16T00:36:19;10.30;;;3.50;;
6101;SDS011;3081;50.584;7.032;2022-08-16T00:38:47;12.20;;;3.47;;
6101;SDS011;3081;50.584;7.032;2022-08-16T00:41:14;10.30;;;3.00;;
6101;SDS011;3081;50.584;7.032;2022-08-16T00:43:41;10.20;;;3.33;;
6101;SDS011;3081;50.584;7.032;2022-08-16T00:46:10;13.17;;;3.40;;
6101;SDS011;3081;50.584;7.032;2022-08-16T00:48:38;11.17;;;3.60;;
6101;SDS011;3081;50.584;7.032;2022-08-16T00:51:08;9.73;;;3.33;;
6101;SDS011;3081;50.584;7.032;2022-08-16T00:53:37;10.30;;;3.30;;
6101;SDS011;3081;50.584;7.032;2022-08-16T00:56:07;9.73;;;3.07;;
6101;SDS011;3081;50.584;7.032;2022-08-16T00:58:38;10.23;;;3.60;;
6101;SDS011;3081;50.584;7.032;2022-08-16T01:01:09;10.57;;;3.37;;
6101;SDS011;3081;50.584;7.032;2022-08-16T01:03:37;10.00;;;3.20;;
6101;SDS011;3081;50.584;7.032;2022-08-16T01:06:05;10.20;;;3.60;;
6101;SDS011;3081;50.584;7.032;2022-08-16T01:08:34;10.10;;;3.80;;
6101;SDS011;3081;50.584;7.032;2022-08-16T01:11:02;10.20;;;3.57;;
6101;SDS011;3081;50.584;7.032;2022-08-16T01:13:32;11.23;;;4.00;;
6101;SDS011;3081;50.584;7.032;2022-08-16T01:16:02;12.57;;;4.07;;
6101;SDS011;3081;50.584;7.032;2022-08-16T01:18:34;10.10;;;3.37;;
6101;SDS011;3081;50.584;7.032;2022-08-16T01:21:08;10.47;;;3.40;;
6101;SDS011;3081;50.584;7.032;2022-08-16T01:26:43;10.53;;;4.30;;
6101;SDS011;3081;50.584;7.032;2022-08-16T01:29:13;10.30;;;3.57;;
6101;SDS011;3081;50.584;7.032;2022-08-16T01:31:43;12.77;;;4.00;;
6101;SDS011;3081;50.584;7.032;2022-08-16T01:34:11;10.27;;;3.57;;
6101;SDS011;3081;50.584;7.032;2022-08-16T01:36:39;12.57;;;4.40;;
6101;SDS011;3081;50.584;7.032;2022-08-16T01:39:10;10.80;;;3.77;;
6101;SDS011;3081;50.584;7.032;2022-08-16T01:41:40;11.00;;;3.93;;
6101;SDS011;3081;50.584;7.032;2022-08-16T01:44:08;11.63;;;4.17;;
6101;SDS011;3081;50.584;7.032;2022-08-16T01:46:36;11.97;;;4.00;;
6101;SDS011;3081;50.584;7.032;2022-08-16T01:49:06;10.10;;;3.30;;
6101;SDS011;3081;50.584;7.032;2022-08-16T01:51:37;9.83;;;3.60;;
6101;SDS011;3081;50.584;7.032;2022-08-16T01:54:05;11.57;;;4.03;;
6101;SDS011;3081;50.584;7.032;2022-08-16T01:56:32;10.50;;;3.90;;
6101;SDS011;3081;50.584;7.032;2022-08-16T01:59:02;10.83;;;4.00;;
6101;SDS011;3081;50.584;7.032;2022-08-16T02:01:31;13.97;;;3.83;;
6101;SDS011;3081;50.584;7.032;2022-08-16T02:04:00;12.53;;;3.87;;
6101;SDS011;3081;50.584;7.032;2022-08-16T02:06:27;10.40;;;3.73;;
6101;SDS011;3081;50.584;7.032;2022-08-16T02:08:54;13.47;;;3.73;;
6101;SDS011;3081;50.584;7.032;2022-08-16T02:11:22;10.43;;;3.70;;
6101;SDS011;3081;50.584;7.032;2022-08-16T02:13:49;11.97;;;4.47;;
6101;SDS011;3081;50.584;7.032;2022-08-16T02:16:18;11.50;;;3.60;;
6101;SDS011;3081;50.584;7.032;2022-08-16T02:18:45;10.90;;;3.87;;
6101;SDS011;3081;50.584;7.032;2022-08-16T02:21:13;11.30;;;4.07;;
6101;SDS011;3081;50.584;7.032;2022-08-16T02:23:40;11.20;;;3.77;;
6101;SDS011;3081;50.584;7.032;2022-08-16T02:26:07;13.13;;;4.03;;
6101;SDS011;3081;50.584;7.032;2022-08-16T02:28:34;10.93;;;3.70;;
6101;SDS011;3081;50.584;7.032;2022-08-16T02:31:04;11.03;;;4.30;;
6101;SDS011;3081;50.584;7.032;2022-08-16T02:33:34;11.83;;;4.00;;
6101;SDS011;3081;50.584;7.032;2022-08-16T02:36:01;10.73;;;4.37;;
6101;SDS011;3081;50.584;7.032;2022-08-16T02:38:29;10.67;;;3.60;;
6101;SDS011;3081;50.584;7.032;2022-08-16T02:40:57;14.10;;;4.30;;
6101;SDS011;3081;50.584;7.032;2022-08-16T02:43:26;12.43;;;5.00;;
6101;SDS011;3081;50.584;7.032;2022-08-16T02:45:55;10.60;;;4.20;;
6101;SDS011;3081;50.584;7.032;2022-08-16T02:48:23;14.40;;;4.73;;
6101;SDS011;3081;50.584;7.032;2022-08-16T02:50:52;12.00;;;4.63;;
6101;SDS011;3081;50.584;7.032;2022-08-16T02:53:22;12.70;;;4.60;;
6101;SDS011;3081;50.584;7.032;2022-08-16T02:55:49;11.47;;;4.60;;
6101;SDS011;3081;50.584;7.032;2022-08-16T02:58:16;12.10;;;4.97;;
6101;SDS011;3081;50.584;7.032;2022-08-16T03:00:43;12.03;;;5.03;;
6101;SDS011;3081;50.584;7.032;2022-08-16T03:03:10;11.30;;;5.00;;
6101;SDS011;3081;50.584;7.032;2022-08-16T03:05:37;10.70;;;4.50;;
6101;SDS011;3081;50.584;7.032;2022-08-16T03:08:06;10.10;;;4.23;;
6101;SDS011;3081;50.584;7.032;2022-08-16T03:10:34;11.23;;;4.80;;
6101;SDS011;3081;50.584;7.032;2022-08-16T03:13:01;15.93;;;4.20;;
6101;SDS011;3081;50.584;7.032;2022-08-16T03:15:30;11.00;;;4.53;;
6101;SDS011;3081;50.584;7.032;2022-08-16T03:17:57;11.20;;;4.90;;
6101;SDS011;3081;50.584;7.032;2022-08-16T03:20:25;11.70;;;4.80;;
6101;SDS011;3081;50.584;7.032;2022-08-16T03:22:52;11.93;;;5.43;;
6101;SDS011;3081;50.584;7.032;2022-08-16T03:25:20;10.83;;;4.63;;
6101;SDS011;3081;50.584;7.032;2022-08-16T03:27:47;11.10;;;4.87;;
6101;SDS011;3081;50.584;7.032;2022-08-16T03:30:15;10.60;;;4.80;;
6101;SDS011;3081;50.584;7.032;2022-08-16T03:32:44;11.10;;;4.73;;
6101;SDS011;3081;50.584;7.032;2022-08-16T03:35:11;12.70;;;5.17;;
6101;SDS011;3081;50.584;7.032;2022-08-16T03:37:38;11.33;;;4.90;;
6101;SDS011;3081;50.584;7.032;2022-08-16T03:40:08;11.13;;;4.80;;
6101;SDS011;3081;50.584;7.032;2022-08-16T03:42:37;10.10;;;4.83;;
6101;SDS011;3081;50.584;7.032;2022-08-16T03:45:04;11.33;;;4.80;;
6101;SDS011;3081;50.584;7.032;2022-08-16T03:47:32;11.93;;;4.83;;
6101;SDS011;3081;50.584;7.032;2022-08-16T03:49:59;11.20;;;5.40;;
6101;SDS011;3081;50.584;7.032;2022-08-16T03:52:27;12.40;;;5.17;;
6101;SDS011;3081;50.584;7.032;2022-08-16T03:54:54;19.53;;;5.40;;
6101;SDS011;3081;50.584;7.032;2022-08-16T03:57:21;10.80;;;4.90;;
6101;SDS011;3081;50.584;7.032;2022-08-16T03:59:50;10.90;;;5.40;;
6101;SDS011;3081;50.584;7.032;2022-08-16T04:02:17;12.00;;;5.13;;
6101;SDS011;3081;50.584;7.032;2022-08-16T04:04:44;10.67;;;4.50;;
6101;SDS011;3081;50.584;7.032;2022-08-16T04:07:11;10.77;;;4.87;;
6101;SDS011;3081;50.584;7.032;2022-08-16T04:09:38;10.70;;;4.50;;
6101;SDS011;3081;50.584;7.032;2022-08-16T04:12:05;15.30;;;5.47;;
6101;SDS011;3081;50.584;7.032;2022-08-16T04:14:33;11.20;;;5.40;;
6101;SDS011;3081;50.584;7.032;2022-08-16T04:17:02;11.30;;;5.60;;
6101;SDS011;3081;50.584;7.032;2022-08-16T04:19:29;10.93;;;5.33;;
6101;SDS011;3081;50.584;7.032;2022-08-16T04:21:59;11.90;;;5.67;;
6101;SDS011;3081;50.584;7.032;2022-08-16T04:24:26;11.27;;;5.30;;
6101;SDS011;3081;50.584;7.032;2022-08-16T04:26:53;10.97;;;5.50;;
6101;SDS011;3081;50.584;7.032;2022-08-16T04:29:20;10.07;;;4.87;;
6101;SDS011;3081;50.584;7.032;2022-08-16T04:31:47;10.70;;;5.53;;
6101;SDS011;3081;50.584;7.032;2022-08-16T04:34:16;11.10;;;5.40;;
6101;SDS011;3081;50.584;7.032;2022-08-16T04:36:43;12.17;;;5.63;;
6101;SDS011;3081;50.584;7.032;2022-08-16T04:39:10;10.97;;;5.73;;
6101;SDS011;3081;50.584;7.032;2022-08-16T04:41:37;11.10;;;5.30;;
6101;SDS011;3081;50.584;7.032;2022-08-16T04:44:05;11.53;;;5.47;;
6101;SDS011;3081;50.584;7.032;2022-08-16T04:46:32;11.97;;;5.23;;
6101;SDS011;3081;50.584;7.032;2022-08-16T04:48:59;12.50;;;4.60;;
6101;SDS011;3081;50.584;7.032;2022-08-16T04:51:27;9.80;;;5.10;;
6101;SDS011;3081;50.584;7.032;2022-08-16T04:53:55;12.27;;;5.75;;
6101;SDS011;3081;50.584;7.032;2022-08-16T04:56:22;10.40;;;5.33;;
6101;SDS011;3081;50.584;7.032;2022-08-16T04:58:48;12.43;;;5.53;;
6101;SDS011;3081;50.584;7.032;2022-08-16T05:01:16;12.83;;;5.40;;
6101;SDS011;3081;50.584;7.032;2022-08-16T05:03:43;11.97;;;6.20;;
6101;SDS011;3081;50.584;7.032;2022-08-16T05:06:11;11.20;;;5.23;;
6101;SDS011;3081;50.584;7.032;2022-08-16T05:08:39;13.40;;;5.17;;
6101;SDS011;3081;50.584;7.032;2022-08-16T05:11:07;10.47;;;5.47;;
6101;SDS011;3081;50.584;7.032;2022-08-16T05:13:36;14.63;;;5.73;;
6101;SDS011;3081;50.584;7.032;2022-08-16T05:16:05;10.67;;;5.47;;
6101;SDS011;3081;50.584;7.032;2022-08-16T05:18:34;12.43;;;5.90;;
6101;SDS011;3081;50.584;7.032;2022-08-16T05:21:02;10.30;;;5.50;;
6101;SDS011;3081;50.584;7.032;2022-08-16T05:23:29;15.00;;;7.37;;
6101;SDS011;3081;50.584;7.032;2022-08-16T05:25:57;20.57;;;12.00;;
6101;SDS011;3081;50.584;7.032;2022-08-16T05:28:24;13.53;;;7.17;;
6101;SDS011;3081;50.584;7.032;2022-08-16T05:30:51;13.10;;;5.80;;
6101;SDS011;3081;50.584;7.032;2022-08-16T05:33:19;12.57;;;5.60;;
6101;SDS011;3081;50.584;7.032;2022-08-16T05:35:46;12.07;;;5.80;;
6101;SDS011;3081;50.584;7.032;2022-08-16T05:38:14;12.50;;;6.00;;
6101;SDS011;3081;50.584;7.032;2022-08-16T05:40:41;12.03;;;6.00;;
6101;SDS011;3081;50.584;7.032;2022-08-16T05:43:10;12.73;;;6.00;;
6101;SDS011;3081;50.584;7.032;2022-08-16T05:45:37;14.00;;;6.30;;
6101;SDS011;3081;50.584;7.032;2022-08-16T05:48:04;11.50;;;5.50;;
6101;SDS011;3081;50.584;7.032;2022-08-16T05:50:31;11.53;;;5.70;;
6101;SDS011;3081;50.584;7.032;2022-08-16T05:52:58;11.47;;;5.70;;
6101;SDS011;3081;50.584;7.032;2022-08-16T05:55:25;13.57;;;5.97;;
6101;SDS011;3081;50.584;7.032;2022-08-16T05:57:51;12.63;;;5.53;;
6101;SDS011;3081;50.584;7.032;2022-08-16T06:00:20;17.50;;;5.50;;
6101;SDS011;3081;50.584;7.032;2022-08-16T06:02:47;12.20;;;4.70;;
6101;SDS011;3081;50.584;7.032;2022-08-16T06:05:14;11.73;;;5.03;;
6101;SDS011;3081;50.584;7.032;2022-08-16T06:07:41;14.73;;;4.67;;
6101;SDS011;3081;50.584;7.032;2022-08-16T06:10:08;10.83;;;4.90;;
6101;SDS011;3081;50.584;7.032;2022-08-16T06:12:36;12.40;;;4.90;;
6101;SDS011;3081;50.584;7.032;2022-08-16T06:15:04;16.10;;;4.77;;
6101;SDS011;3081;50.584;7.032;2022-08-16T06:17:35;13.73;;;5.27;;
6101;SDS011;3081;50.584;7.032;2022-08-16T06:20:02;14.20;;;5.27;;
6101;SDS011;3081;50.584;7.032;2022-08-16T06:22:30;13.03;;;5.27;;
6101;SDS011;3081;50.584;7.032;2022-08-16T06:24:58;13.87;;;5.13;;
6101;SDS011;3081;50.584;7.032;2022-08-16T06:27:25;12.97;;;4.70;;
6101;SDS011;3081;50.584;7.032;2022-08-16T06:29:52;13.10;;;4.77;;
6101;SDS011;3081;50.584;7.032;2022-08-16T06:32:19;11.30;;;4.80;;
6101;SDS011;3081;50.584;7.032;2022-08-16T06:34:47;12.57;;;4.90;;
6101;SDS011;3081;50.584;7.032;2022-08-16T06:37:14;17.33;;;5.10;;
6101;SDS011;3081;50.584;7.032;2022-08-16T06:39:41;12.17;;;4.77;;
6101;SDS011;3081;50.584;7.032;2022-08-16T06:42:08;12.07;;;4.20;;
6101;SDS011;3081;50.584;7.032;2022-08-16T06:44:35;11.80;;;4.67;;
6101;SDS011;3081;50.584;7.032;2022-08-16T06:47:02;11.50;;;4.30;;
6101;SDS011;3081;50.584;7.032;2022-08-16T06:49:29;13.17;;;4.80;;
6101;SDS011;3081;50.584;7.032;2022-08-16T06:51:58;14.33;;;4.70;;
6101;SDS011;3081;50.584;7.032;2022-08-16T06:54:25;11.90;;;4.67;;
6101;SDS011;3081;50.584;7.032;2022-08-16T06:56:52;12.43;;;5.20;;
6101;SDS011;3081;50.584;7.032;2022-08-16T06:59:19;12.37;;;4.80;;
6101;SDS011;3081;50.584;7.032;2022-08-16T07:01:46;10.80;;;3.83;;
6101;SDS011;3081;50.584;7.032;2022-08-16T07:04:13;12.50;;;4.20;;
6101;SDS011;3081;50.584;7.032;2022-08-16T07:06:40;10.73;;;4.07;;
6101;SDS011;3081;50.584;7.032;2022-08-16T07:09:08;12.70;;;4.60;;
6101;SDS011;3081;50.584;7.032;2022-08-16T07:11:36;11.97;;;4.83;;
6101;SDS011;3081;50.584;7.032;2022-08-16T07:14:03;12.20;;;4.00;;
6101;SDS011;3081;50.584;7.032;2022-08-16T07:16:31;12.13;;;4.53;;
6101;SDS011;3081;50.584;7.032;2022-08-16T07:18:58;11.87;;;4.40;;
6101;SDS011;3081;50.584;7.032;2022-08-16T07:21:25;12.07;;;4.90;;
6101;SDS011;3081;50.584;7.032;2022-08-16T07:23:52;12.23;;;4.53;;
6101;SDS011;3081;50.584;7.032;2022-08-16T07:26:21;11.43;;;4.53;;
6101;SDS011;3081;50.584;7.032;2022-08-16T07:28:49;12.87;;;4.47;;
6101;SDS011;3081;50.584;7.032;2022-08-16T07:31:17;12.43;;;4.07;;
6101;SDS011;3081;50.584;7.032;2022-08-16T07:33:44;14.73;;;5.03;;
6101;SDS011;3081;50.584;7.032;2022-08-16T07:36:12;11.70;;;4.33;;
6101;SDS011;3081;50.584;7.032;2022-08-16T07:38:41;11.90;;;4.47;;
6101;SDS011;3081;50.584;7.032;2022-08-16T07:41:08;14.10;;;4.90;;
6101;SDS011;3081;50.584;7.032;2022-08-16T07:43:37;14.40;;;4.40;;
6101;SDS011;3081;50.584;7.032;2022-08-16T07:46:04;12.83;;;4.70;;
6101;SDS011;3081;50.584;7.032;2022-08-16T07:48:31;15.60;;;4.30;;
6101;SDS011;3081;50.584;7.032;2022-08-16T07:50:58;12.50;;;5.00;;
6101;SDS011;3081;50.584;7.032;2022-08-16T07:53:26;16.30;;;4.37;;
6101;SDS011;3081;50.584;7.032;2022-08-16T07:55:53;13.37;;;5.00;;
6101;SDS011;3081;50.584;7.032;2022-08-16T07:58:20;12.93;;;4.47;;
6101;SDS011;3081;50.584;7.032;2022-08-16T08:00:49;11.90;;;4.20;;
6101;SDS011;3081;50.584;7.032;2022-08-16T08:03:16;12.77;;;4.43;;
6101;SDS011;3081;50.584;7.032;2022-08-16T08:05:43;12.70;;;4.50;;
6101;SDS011;3081;50.584;7.032;2022-08-16T08:08:09;11.70;;;4.30;;
6101;SDS011;3081;50.584;7.032;2022-08-16T08:10:37;13.27;;;4.20;;
6101;SDS011;3081;50.584;7.032;2022-08-16T08:13:04;13.43;;;4.70;;
6101;SDS011;3081;50.584;7.032;2022-08-16T08:15:32;15.73;;;4.23;;
6101;SDS011;3081;50.584;7.032;2022-08-16T08:18:00;14.10;;;4.70;;
6101;SDS011;3081;50.584;7.032;2022-08-16T08:20:27;13.33;;;4.43;;
6101;SDS011;3081;50.584;7.032;2022-08-16T08:22:55;13.50;;;4.10;;
6101;SDS011;3081;50.584;7.032;2022-08-16T08:25:23;13.10;;;4.40;;
6101;SDS011;3081;50.584;7.032;2022-08-16T08:27:51;12.20;;;4.07;;
6101;SDS011;3081;50.584;7.032;2022-08-16T08:30:18;11.70;;;3.90;;
6101;SDS011;3081;50.584;7.032;2022-08-16T08:32:45;12.97;;;3.90;;
6101;SDS011;3081;50.584;7.032;2022-08-16T08:35:13;14.40;;;4.80;;
6101;SDS011;3081;50.584;7.032;2022-08-16T08:37:40;12.90;;;4.73;;
6101;SDS011;3081;50.584;7.032;2022-08-16T08:40:09;14.20;;;5.30;;
6101;SDS011;3081;50.584;7.032;2022-08-16T08:42:37;11.57;;;4.00;;
6101;SDS011;3081;50.584;7.032;2022-08-16T08:45:06;10.97;;;3.73;;
6101;SDS011;3081;50.584;7.032;2022-08-16T08:47:33;11.10;;;3.60;;
6101;SDS011;3081;50.584;7.032;2022-08-16T08:50:00;12.37;;;3.97;;
6101;SDS011;3081;50.584;7.032;2022-08-16T08:52:30;12.80;;;4.13;;
6101;SDS011;3081;50.584;7.032;2022-08-16T08:54:57;12.53;;;3.60;;
6101;SDS011;3081;50.584;7.032;2022-08-16T08:57:29;10.87;;;3.60;;
6101;SDS011;3081;50.584;7.032;2022-08-16T08:59:56;15.37;;;3.87;;
6101;SDS011;3081;50.584;7.032;2022-08-16T09:02:23;11.67;;;3.90;;
6101;SDS011;3081;50.584;7.032;2022-08-16T09:04:50;13.50;;;4.30;;
6101;SDS011;3081;50.584;7.032;2022-08-16T09:07:17;11.70;;;4.20;;
6101;SDS011;3081;50.584;7.032;2022-08-16T09:09:47;12.53;;;4.03;;
6101;SDS011;3081;50.584;7.032;2022-08-16T09:12:14;16.33;;;3.70;;
6101;SDS011;3081;50.584;7.032;2022-08-16T09:14:42;11.77;;;3.90;;
6101;SDS011;3081;50.584;7.032;2022-08-16T09:17:10;14.17;;;3.77;;
6101;SDS011;3081;50.584;7.032;2022-08-16T09:19:37;12.03;;;3.63;;
6101;SDS011;3081;50.584;7.032;2022-08-16T09:22:05;10.87;;;3.40;;
6101;SDS011;3081;50.584;7.032;2022-08-16T09:24:33;10.60;;;3.23;;
6101;SDS011;3081;50.584;7.032;2022-08-16T09:27:02;10.40;;;3.27;;
6101;SDS011;3081;50.584;7.032;2022-08-16T09:29:29;12.23;;;3.17;;
6101;SDS011;3081;50.584;7.032;2022-08-16T09:31:57;9.57;;;2.90;;
6101;SDS011;3081;50.584;7.032;2022-08-16T09:34:24;14.20;;;2.80;;
6101;SDS011;3081;50.584;7.032;2022-08-16T09:36:51;12.10;;;3.40;;
6101;SDS011;3081;50.584;7.032;2022-08-16T09:39:20;13.43;;;3.40;;
6101;SDS011;3081;50.584;7.032;2022-08-16T09:41:47;10.77;;;2.77;;
6101;SDS011;3081;50.584;7.032;2022-08-16T09:44:17;14.70;;;2.80;;
6101;SDS011;3081;50.584;7.032;2022-08-16T09:46:44;10.67;;;2.83;;
6101;SDS011;3081;50.584;7.032;2022-08-16T09:49:12;10.90;;;2.70;;
6101;SDS011;3081;50.584;7.032;2022-08-16T09:51:39;9.23;;;3.00;;
6101;SDS011;3081;50.584;7.032;2022-08-16T09:54:06;10.30;;;3.00;;
6101;SDS011;3081;50.584;7.032;2022-08-16T09:56:34;9.20;;;2.47;;
6101;SDS011;3081;50.584;7.032;2022-08-16T09:59:04;12.50;;;3.03;;
6101;SDS011;3081;50.584;7.032;2022-08-16T10:01:34;11.60;;;3.13;;
6101;SDS011;3081;50.584;7.032;2022-08-16T10:04:02;10.40;;;3.03;;
6101;SDS011;3081;50.584;7.032;2022-08-16T10:06:30;10.80;;;3.10;;
6101;SDS011;3081;50.584;7.032;2022-08-16T10:08:58;8.37;;;2.40;;
6101;SDS011;3081;50.584;7.032;2022-08-16T10:11:24;10.00;;;2.60;;
6101;SDS011;3081;50.584;7.032;2022-08-16T10:14:09;11.10;;;2.70;;
6101;SDS011;3081;50.584;7.032;2022-08-16T10:16:37;8.00;;;2.10;;
6101;SDS011;3081;50.584;7.032;2022-08-16T10:19:04;8.03;;;2.50;;
6101;SDS011;3081;50.584;7.032;2022-08-16T10:21:31;9.10;;;2.77;;
6101;SDS011;3081;50.584;7.032;2022-08-16T10:23:58;9.03;;;2.30;;
6101;SDS011;3081;50.584;7.032;2022-08-16T10:26:25;10.13;;;2.47;;
6101;SDS011;3081;50.584;7.032;2022-08-16T10:28:53;11.23;;;2.70;;
6101;SDS011;3081;50.584;7.032;2022-08-16T10:31:20;8.07;;;2.50;;
6101;SDS011;3081;50.584;7.032;2022-08-16T10:33:48;10.13;;;2.57;;
6101;SDS011;3081;50.584;7.032;2022-08-16T10:36:15;9.80;;;2.70;;
6101;SDS011;3081;50.584;7.032;2022-08-16T10:38:42;12.50;;;3.00;;
6101;SDS011;3081;50.584;7.032;2022-08-16T10:41:10;8.93;;;2.50;;
6101;SDS011;3081;50.584;7.032;2022-08-16T10:43:38;10.33;;;2.63;;
6101;SDS011;3081;50.584;7.032;2022-08-16T10:46:08;8.40;;;2.53;;
6101;SDS011;3081;50.584;7.032;2022-08-16T10:48:37;7.87;;;2.20;;
6101;SDS011;3081;50.584;7.032;2022-08-16T10:51:06;10.83;;;3.03;;
6101;SDS011;3081;50.584;7.032;2022-08-16T10:53:33;13.00;;;3.30;;
6101;SDS011;3081;50.584;7.032;2022-08-16T10:56:02;11.20;;;3.60;;
6101;SDS011;3081;50.584;7.032;2022-08-16T10:58:31;11.00;;;3.57;;
6101;SDS011;3081;50.584;7.032;2022-08-16T11:00:58;11.60;;;3.17;;
6101;SDS011;3081;50.584;7.032;2022-08-16T11:03:26;15.10;;;3.10;;
6101;SDS011;3081;50.584;7.032;2022-08-16T11:05:53;10.90;;;3.00;;
6101;SDS011;3081;50.584;7.032;2022-08-16T11:08:22;10.83;;;3.40;;
6101;SDS011;3081;50.584;7.032;2022-08-16T11:10:49;14.97;;;3.57;;
6101;SDS011;3081;50.584;7.032;2022-08-16T11:13:17;12.30;;;3.30;;
6101;SDS011;3081;50.584;7.032;2022-08-16T11:15:45;10.53;;;3.43;;
6101;SDS011;3081;50.584;7.032;2022-08-16T11:18:12;11.30;;;3.53;;
6101;SDS011;3081;50.584;7.032;2022-08-16T11:20:40;14.80;;;4.17;;
6101;SDS011;3081;50.584;7.032;2022-08-16T11:23:08;15.70;;;4.10;;
6101;SDS011;3081;50.584;7.032;2022-08-16T11:25:36;16.77;;;4.00;;
6101;SDS011;3081;50.584;7.032;2022-08-16T11:28:04;12.40;;;3.70;;
6101;SDS011;3081;50.584;7.032;2022-08-16T11:30:32;14.03;;;3.80;;
6101;SDS011;3081;50.584;7.032;2022-08-16T11:33:00;14.03;;;3.77;;
6101;SDS011;3081;50.584;7.032;2022-08-16T11:35:28;15.93;;;5.53;;
6101;SDS011;3081;50.584;7.032;2022-08-16T11:37:58;12.27;;;3.23;;
6101;SDS011;3081;50.584;7.032;2022-08-16T11:40:28;11.97;;;3.80;;
6101;SDS011;3081;50.584;7.032;2022-08-16T11:42:59;26.20;;;4.60;;
6101;SDS011;3081;50.584;7.032;2022-08-16T11:45:27;15.47;;;3.60;;
6101;SDS011;3081;50.584;7.032;2022-08-16T11:47:54;10.90;;;3.13;;
6101;SDS011;3081;50.584;7.032;2022-08-16T11:50:21;15.73;;;3.50;;
6101;SDS011;3081;50.584;7.032;2022-08-16T11:52:48;18.57;;;3.90;;
6101;SDS011;3081;50.584;7.032;2022-08-16T11:55:16;15.33;;;3.50;;
6101;SDS011;3081;50.584;7.032;2022-08-16T11:57:43;16.80;;;3.60;;
6101;SDS011;3081;50.584;7.032;2022-08-16T12:00:12;13.40;;;3.60;;
6101;SDS011;3081;50.584;7.032;2022-08-16T12:02:41;13.03;;;3.60;;
6101;SDS011;3081;50.584;7.032;2022-08-16T12:05:08;14.50;;;3.50;;
6101;SDS011;3081;50.584;7.032;2022-08-16T12:07:38;19.53;;;3.50;;
6101;SDS011;3081;50.584;7.032;2022-08-16T12:10:07;12.27;;;3.17;;
6101;SDS011;3081;50.584;7.032;2022-08-16T12:12:36;14.27;;;3.03;;
6101;SDS011;3081;50.584;7.032;2022-08-16T12:15:03;11.00;;;3.10;;
6101;SDS011;3081;50.584;7.032;2022-08-16T12:17:32;9.80;;;2.87;;
6101;SDS011;3081;50.584;7.032;2022-08-16T12:20:00;9.90;;;2.90;;
6101;SDS011;3081;50.584;7.032;2022-08-16T12:22:28;10.87;;;3.43;;
6101;SDS011;3081;50.584;7.032;2022-08-16T12:24:55;11.47;;;2.53;;
6101;SDS011;3081;50.584;7.032;2022-08-16T12:27:22;8.70;;;2.30;;
6101;SDS011;3081;50.584;7.032;2022-08-16T12:29:50;9.73;;;2.23;;
6101;SDS011;3081;50.584;7.032;2022-08-16T12:32:18;12.50;;;2.63;;
6101;SDS011;3081;50.584;7.032;2022-08-16T12:34:46;9.17;;;2.50;;
6101;SDS011;3081;50.584;7.032;2022-08-16T12:37:13;10.77;;;2.80;;
6101;SDS011;3081;50.584;7.032;2022-08-16T12:39:41;13.13;;;2.83;;
6101;SDS011;3081;50.584;7.032;2022-08-16T12:42:08;12.57;;;3.13;;
6101;SDS011;3081;50.584;7.032;2022-08-16T12:44:35;11.40;;;3.00;;
6101;SDS011;3081;50.584;7.032;2022-08-16T12:47:04;11.20;;;2.87;;
6101;SDS011;3081;50.584;7.032;2022-08-16T12:49:50;9.50;;;2.80;;
6101;SDS011;3081;50.584;7.032;2022-08-16T12:52:17;8.10;;;2.33;;
6101;SDS011;3081;50.584;7.032;2022-08-16T12:54:44;11.50;;;2.37;;
6101;SDS011;3081;50.584;7.032;2022-08-16T12:57:11;9.80;;;2.33;;
6101;SDS011;3081;50.584;7.032;2022-08-16T12:59:38;7.30;;;2.00;;
6101;SDS011;3081;50.584;7.032;2022-08-16T13:02:06;8.00;;;2.97;;
6101;SDS011;3081;50.584;7.032;2022-08-16T13:04:33;8.17;;;2.87;;
6101;SDS011;3081;50.584;7.032;2022-08-16T13:07:02;9.23;;;2.47;;
6101;SDS011;3081;50.584;7.032;2022-08-16T13:09:30;8.83;;;1.80;;
6101;SDS011;3081;50.584;7.032;2022-08-16T13:11:59;9.20;;;2.37;;
6101;SDS011;3081;50.584;7.032;2022-08-16T13:14:33;7.30;;;2.00;;
6101;SDS011;3081;50.584;7.032;2022-08-16T13:17:02;7.33;;;1.70;;
6101;SDS011;3081;50.584;7.032;2022-08-16T13:19:31;8.00;;;2.37;;
6101;SDS011;3081;50.584;7.032;2022-08-16T13:21:58;6.70;;;1.70;;
6101;SDS011;3081;50.584;7.032;2022-08-16T13:24:27;8.90;;;1.97;;
6101;SDS011;3081;50.584;7.032;2022-08-16T13:26:54;10.30;;;1.80;;
6101;SDS011;3081;50.584;7.032;2022-08-16T13:29:21;12.03;;;1.87;;
6101;SDS011;3081;50.584;7.032;2022-08-16T13:31:48;11.10;;;1.90;;
6101;SDS011;3081;50.584;7.032;2022-08-16T13:34:15;8.07;;;1.70;;
6101;SDS011;3081;50.584;7.032;2022-08-16T13:36:42;6.10;;;1.60;;
6101;SDS011;3081;50.584;7.032;2022-08-16T13:39:09;6.60;;;1.80;;
6101;SDS011;3081;50.584;7.032;2022-08-16T13:41:37;10.43;;;2.10;;
6101;SDS011;3081;50.584;7.032;2022-08-16T13:44:05;6.30;;;1.43;;
6101;SDS011;3081;50.584;7.032;2022-08-16T13:46:32;7.80;;;1.70;;
6101;SDS011;3081;50.584;7.032;2022-08-16T13:48:59;7.73;;;1.70;;
6101;SDS011;3081;50.584;7.032;2022-08-16T13:51:26;11.53;;;3.37;;
6101;SDS011;3081;50.584;7.032;2022-08-16T13:53:55;9.10;;;2.37;;
6101;SDS011;3081;50.584;7.032;2022-08-16T13:56:27;9.00;;;2.17;;
6101;SDS011;3081;50.584;7.032;2022-08-16T13:58:56;8.40;;;2.40;;
6101;SDS011;3081;50.584;7.032;2022-08-16T14:01:23;9.40;;;2.03;;
6101;SDS011;3081;50.584;7.032;2022-08-16T14:03:50;12.60;;;2.70;;
6101;SDS011;3081;50.584;7.032;2022-08-16T14:06:17;7.80;;;2.10;;
6101;SDS011;3081;50.584;7.032;2022-08-16T14:08:45;8.50;;;2.07;;
6101;SDS011;3081;50.584;7.032;2022-08-16T14:11:12;7.60;;;1.90;;
6101;SDS011;3081;50.584;7.032;2022-08-16T14:13:40;9.37;;;2.00;;
6101;SDS011;3081;50.584;7.032;2022-08-16T14:16:09;8.50;;;2.00;;
6101;SDS011;3081;50.584;7.032;2022-08-16T14:18:37;8.30;;;1.70;;
6101;SDS011;3081;50.584;7.032;2022-08-16T14:21:04;7.13;;;1.70;;
6101;SDS011;3081;50.584;7.032;2022-08-16T14:23:31;10.40;;;2.13;;
6101;SDS011;3081;50.584;7.032;2022-08-16T14:25:58;12.87;;;2.00;;
6101;SDS011;3081;50.584;7.032;2022-08-16T14:28:26;9.20;;;2.47;;
6101;SDS011;3081;50.584;7.032;2022-08-16T14:30:53;9.37;;;2.43;;
6101;SDS011;3081;50.584;7.032;2022-08-16T14:33:22;10.13;;;2.23;;
6101;SDS011;3081;50.584;7.032;2022-08-16T14:35:49;9.03;;;2.53;;
6101;SDS011;3081;50.584;7.032;2022-08-16T14:38:16;8.70;;;2.40;;
6101;SDS011;3081;50.584;7.032;2022-08-16T14:40:44;9.03;;;2.50;;
6101;SDS011;3081;50.584;7.032;2022-08-16T14:43:11;10.53;;;2.40;;
6101;SDS011;3081;50.584;7.032;2022-08-16T14:45:38;8.60;;;2.27;;
6101;SDS011;3081;50.584;7.032;2022-08-16T14:48:05;9.00;;;2.10;;
6101;SDS011;3081;50.584;7.032;2022-08-16T14:50:33;7.73;;;1.97;;
6101;SDS011;3081;50.584;7.032;2022-08-16T14:53:01;9.53;;;2.10;;
6101;SDS011;3081;50.584;7.032;2022-08-16T14:55:31;9.47;;;2.60;;
6101;SDS011;3081;50.584;7.032;2022-08-16T14:57:59;10.23;;;2.23;;
6101;SDS011;3081;50.584;7.032;2022-08-16T15:00:27;8.20;;;2.07;;
6101;SDS011;3081;50.584;7.032;2022-08-16T15:02:56;10.93;;;2.50;;
6101;SDS011;3081;50.584;7.032;2022-08-16T15:05:25;12.33;;;2.40;;
6101;SDS011;3081;50.584;7.032;2022-08-16T15:07:54;10.30;;;2.10;;
6101;SDS011;3081;50.584;7.032;2022-08-16T15:10:22;8.33;;;2.03;;
6101;SDS011;3081;50.584;7.032;2022-08-16T15:12:49;7.73;;;1.73;;